sensor_id;sensor_type;location;lat;lon;timestamp;pressure;altitude;pressure_sealevel;temperature;humidity
43707;BME280;61348;53.392;-6.248;2023-02-13T00:00:20;102390.19;;;6.92;84.08
43707;BME280;61348;53.392;-6.248;2023-02-13T00:02:50;102381.38;;;6.95;83.75
43707;BME280;61348;53.392;-6.248;2023-02-13T00:05:17;102383.03;;;6.96;83.99
43707;BME280;61348;53.392;-6.248;2023-02-13T00:07:44;102384.66;;;6.97;83.89
43707;BME280;61348;53.392;-6.248;2023-02-13T00:10:11;102376.41;;;6.97;84.13
43707;BME280;61348;53.392;-6.248;2023-02-13T00:12:38;102383.03;;;6.96;84.19
43707;BME280;61348;53.392;-6.248;2023-02-13T00:15:05;102375.88;;;6.95;84.48
43707;BME280;61348;53.392;-6.248;2023-02-13T00:17:33;102370.63;;;6.94;84.34
43707;BME280;61348;53.392;-6.248;2023-02-13T00:19:59;102378.34;;;6.92;84.72
43707;BME280;61348;53.392;-6.248;2023-02-13T00:22:26;102375.06;;;6.90;84.61
43707;BME280;61348;53.392;-6.248;2023-02-13T00:24:53;102376.72;;;6.91;84.72
43707;BME280;61348;53.392;-6.248;2023-02-13T00:27:20;102377.81;;;6.90;84.62
43707;BME280;61348;53.392;-6.248;2023-02-13T00:29:46;102376.97;;;6.89;84.88
43707;BME280;61348;53.392;-6.248;2023-02-13T00:32:13;102370.38;;;6.90;84.95
43707;BME280;61348;53.392;-6.248;2023-02-13T00:34:40;102380.56;;;6.90;84.90
43707;BME280;61348;53.392;-6.248;2023-02-13T00:37:09;102377.28;;;6.88;84.76
43707;BME280;61348;53.392;-6.248;2023-02-13T00:39:36;102380.03;;;6.88;84.82
43707;BME280;61348;53.392;-6.248;2023-02-13T00:42:04;102388.28;;;6.88;84.90
43707;BME280;61348;53.392;-6.248;2023-02-13T00:44:31;102389.38;;;6.87;84.80
43707;BME280;61348;53.392;-6.248;2023-02-13T00:46:58;102382.25;;;6.86;84.88
43707;BME280;61348;53.392;-6.248;2023-02-13T00:49:25;102378.94;;;6.84;84.84
43707;BME280;61348;53.392;-6.248;2023-02-13T00:51:51;102377.28;;;6.83;85.06
43707;BME280;61348;53.392;-6.248;2023-02-13T00:54:19;102369.59;;;6.80;85.05
43707;BME280;61348;53.392;-6.248;2023-02-13T00:56:47;102361.91;;;6.77;85.16
43707;BME280;61348;53.392;-6.248;2023-02-13T00:59:14;102361.34;;;6.74;85.19
43707;BME280;61348;53.392;-6.248;2023-02-13T01:01:40;102359.16;;;6.71;85.46
43707;BME280;61348;53.392;-6.248;2023-02-13T01:04:07;102361.38;;;6.69;85.42
43707;BME280;61348;53.392;-6.248;2023-02-13T01:06:35;102360.00;;;6.67;85.48
43707;BME280;61348;53.392;-6.248;2023-02-13T01:09:04;102354.75;;;6.65;85.45
43707;BME280;61348;53.392;-6.248;2023-02-13T01:11:30;102359.44;;;6.65;85.55
43707;BME280;61348;53.392;-6.248;2023-02-13T01:13:57;102355.31;;;6.62;85.25
43707;BME280;61348;53.392;-6.248;2023-02-13T01:16:24;102363.03;;;6.60;85.51
43707;BME280;61348;53.392;-6.248;2023-02-13T01:18:51;102358.63;;;6.59;85.55
43707;BME280;61348;53.392;-6.248;2023-02-13T01:21:19;102363.59;;;6.57;85.58
43707;BME280;61348;53.392;-6.248;2023-02-13T01:23:47;102357.25;;;6.57;85.58
43707;BME280;61348;53.392;-6.248;2023-02-13T01:26:22;102353.13;;;6.54;85.65
43707;BME280;61348;53.392;-6.248;2023-02-13T01:28:53;102371.03;;;6.52;85.96
43707;BME280;61348;53.392;-6.248;2023-02-13T01:31:21;102355.66;;;6.51;85.90
43707;BME280;61348;53.392;-6.248;2023-02-13T01:33:48;102355.91;;;6.49;86.04
43707;BME280;61348;53.392;-6.248;2023-02-13T01:36:14;102347.13;;;6.47;85.97
43707;BME280;61348;53.392;-6.248;2023-02-13T01:38:41;102350.16;;;6.46;85.90
43707;BME280;61348;53.392;-6.248;2023-02-13T01:41:09;102347.66;;;6.44;86.20
43707;BME280;61348;53.392;-6.248;2023-02-13T01:43:44;102350.97;;;6.41;86.36
43707;BME280;61348;53.392;-6.248;2023-02-13T01:46:17;102344.94;;;6.39;86.18
43707;BME280;61348;53.392;-6.248;2023-02-13T01:48:45;102346.03;;;6.38;86.27
43707;BME280;61348;53.392;-6.248;2023-02-13T01:51:18;102349.34;;;6.35;86.18
43707;BME280;61348;53.392;-6.248;2023-02-13T01:54:05;102342.75;;;6.31;86.61
43707;BME280;61348;53.392;-6.248;2023-02-13T01:56:40;102341.91;;;6.31;86.62
43707;BME280;61348;53.392;-6.248;2023-02-13T01:59:13;102339.47;;;6.29;86.51
43707;BME280;61348;53.392;-6.248;2023-02-13T02:01:46;102344.13;;;6.29;86.47
43707;BME280;61348;53.392;-6.248;2023-02-13T02:04:17;102342.47;;;6.28;86.77
43707;BME280;61348;53.392;-6.248;2023-02-13T02:06:51;102342.75;;;6.26;86.75
43707;BME280;61348;53.392;-6.248;2023-02-13T02:09:24;102347.44;;;6.26;86.60
43707;BME280;61348;53.392;-6.248;2023-02-13T02:12:20;102342.22;;;6.24;86.76
43707;BME280;61348;53.392;-6.248;2023-02-13T02:14:48;102343.31;;;6.23;86.56
43707;BME280;61348;53.392;-6.248;2023-02-13T02:17:16;102346.06;;;6.23;86.80
43707;BME280;61348;53.392;-6.248;2023-02-13T02:33:07;102333.97;;;6.04;87.22
43707;BME280;61348;53.392;-6.248;2023-02-13T02:39:11;102319.44;;;6.03;86.89
43707;BME280;61348;53.392;-6.248;2023-02-13T02:41:52;102321.88;;;6.05;86.94
43707;BME280;61348;53.392;-6.248;2023-02-13T02:44:31;102323.81;;;6.04;86.87
43707;BME280;61348;53.392;-6.248;2023-02-13T02:49:58;102316.38;;;6.05;86.74
43707;BME280;61348;53.392;-6.248;2023-02-13T03:01:15;102308.41;;;5.98;86.79
43707;BME280;61348;53.392;-6.248;2023-02-13T03:04:03;102310.63;;;5.96;86.80
43707;BME280;61348;53.392;-6.248;2023-02-13T03:06:55;102310.63;;;5.91;86.91
43707;BME280;61348;53.392;-6.248;2023-02-13T03:09:29;102313.66;;;5.85;86.85
43707;BME280;61348;53.392;-6.248;2023-02-13T03:12:20;102302.06;;;5.78;87.00
43707;BME280;61348;53.392;-6.248;2023-02-13T03:15:07;102308.94;;;5.70;87.13
43707;BME280;61348;53.392;-6.248;2023-02-13T03:17:34;102308.13;;;5.70;87.16
43707;BME280;61348;53.392;-6.248;2023-02-13T03:20:34;102311.41;;;5.62;87.13
43707;BME280;61348;53.392;-6.248;2023-02-13T03:26:37;102293.28;;;5.50;87.23
43707;BME280;61348;53.392;-6.248;2023-02-13T03:34:08;102291.38;;;5.61;87.74
43707;BME280;61348;53.392;-6.248;2023-02-13T03:40:02;102280.91;;;5.73;87.67
43707;BME280;61348;53.392;-6.248;2023-02-13T03:45:45;102288.94;;;5.85;87.86
43707;BME280;61348;53.392;-6.248;2023-02-13T03:48:25;102292.50;;;5.90;87.95
43707;BME280;61348;53.392;-6.248;2023-02-13T03:51:18;102290.00;;;5.94;87.75
43707;BME280;61348;53.392;-6.248;2023-02-13T03:53:50;102286.69;;;5.97;87.83
43707;BME280;61348;53.392;-6.248;2023-02-13T03:56:21;102292.75;;;5.99;88.05
43707;BME280;61348;53.392;-6.248;2023-02-13T03:59:09;102294.13;;;6.01;88.35
43707;BME280;61348;53.392;-6.248;2023-02-13T04:01:49;102284.78;;;6.02;88.29
43707;BME280;61348;53.392;-6.248;2023-02-13T04:07:05;102281.19;;;6.02;88.52
43707;BME280;61348;53.392;-6.248;2023-02-13T04:09:36;102280.09;;;6.03;88.44
43707;BME280;61348;53.392;-6.248;2023-02-13T04:12:23;102280.09;;;6.03;88.42
43707;BME280;61348;53.392;-6.248;2023-02-13T04:14:57;102283.94;;;6.02;88.65
43707;BME280;61348;53.392;-6.248;2023-02-13T04:17:57;102282.31;;;6.01;88.75
43707;BME280;61348;53.392;-6.248;2023-02-13T04:20:29;102285.06;;;6.01;88.56
43707;BME280;61348;53.392;-6.248;2023-02-13T04:22:56;102280.38;;;6.01;88.75
43707;BME280;61348;53.392;-6.248;2023-02-13T04:25:29;102280.38;;;6.01;88.92
43707;BME280;61348;53.392;-6.248;2023-02-13T04:27:56;102277.91;;;6.00;88.92
43707;BME280;61348;53.392;-6.248;2023-02-13T04:30:22;102278.16;;;5.98;88.77
43707;BME280;61348;53.392;-6.248;2023-02-13T04:32:49;102277.38;;;5.98;88.93
43707;BME280;61348;53.392;-6.248;2023-02-13T04:35:18;102280.38;;;5.96;88.83
43707;BME280;61348;53.392;-6.248;2023-02-13T04:37:45;102268.00;;;5.94;88.83
43707;BME280;61348;53.392;-6.248;2023-02-13T04:40:12;102274.88;;;5.91;89.08
43707;BME280;61348;53.392;-6.248;2023-02-13T04:42:38;102274.34;;;5.89;88.88
43707;BME280;61348;53.392;-6.248;2023-02-13T04:45:05;102269.09;;;5.88;89.11
43707;BME280;61348;53.392;-6.248;2023-02-13T04:47:32;102270.50;;;5.85;89.25
43707;BME280;61348;53.392;-6.248;2023-02-13T04:49:59;102261.44;;;5.85;89.18
43707;BME280;61348;53.392;-6.248;2023-02-13T04:52:28;102261.44;;;5.85;89.26
43707;BME280;61348;53.392;-6.248;2023-02-13T04:54:54;102265.00;;;5.85;89.19
43707;BME280;61348;53.392;-6.248;2023-02-13T04:57:21;102264.72;;;5.87;89.55
43707;BME280;61348;53.392;-6.248;2023-02-13T04:59:48;102265.56;;;5.87;89.58
43707;BME280;61348;53.392;-6.248;2023-02-13T05:02:15;102258.13;;;5.88;89.57
43707;BME280;61348;53.392;-6.248;2023-02-13T05:04:42;102262.25;;;5.90;89.59
43707;BME280;61348;53.392;-6.248;2023-02-13T05:07:08;102261.97;;;5.92;89.59
43707;BME280;61348;53.392;-6.248;2023-02-13T05:09:35;102273.50;;;5.94;89.31
43707;BME280;61348;53.392;-6.248;2023-02-13T05:12:03;102268.84;;;5.94;89.71
43707;BME280;61348;53.392;-6.248;2023-02-13T05:14:31;102270.22;;;5.97;89.55
43707;BME280;61348;53.392;-6.248;2023-02-13T05:16:58;102274.63;;;5.98;89.77
43707;BME280;61348;53.392;-6.248;2023-02-13T05:19:25;102281.75;;;5.99;89.54
43707;BME280;61348;53.392;-6.248;2023-02-13T05:21:51;102281.50;;;6.00;89.59
43707;BME280;61348;53.392;-6.248;2023-02-13T05:24:37;102278.75;;;6.00;89.53
43707;BME280;61348;53.392;-6.248;2023-02-13T05:27:04;102276.81;;;6.01;89.72
43707;BME280;61348;53.392;-6.248;2023-02-13T05:29:30;102272.94;;;6.02;89.72
43707;BME280;61348;53.392;-6.248;2023-02-13T05:31:58;102276.53;;;6.02;89.61
43707;BME280;61348;53.392;-6.248;2023-02-13T05:34:27;102272.94;;;6.02;89.68
43707;BME280;61348;53.392;-6.248;2023-02-13T05:36:54;102269.09;;;6.03;89.52
43707;BME280;61348;53.392;-6.248;2023-02-13T05:39:20;102267.44;;;6.02;89.57
43707;BME280;61348;53.392;-6.248;2023-02-13T05:41:48;102268.56;;;6.01;89.60
43707;BME280;61348;53.392;-6.248;2023-02-13T05:44:15;102264.16;;;6.00;89.41
43707;BME280;61348;53.392;-6.248;2023-02-13T05:46:43;102262.50;;;5.99;89.49
43707;BME280;61348;53.392;-6.248;2023-02-13T05:49:12;102260.59;;;5.99;89.68
43707;BME280;61348;53.392;-6.248;2023-02-13T05:51:40;102250.41;;;6.00;89.74
43707;BME280;61348;53.392;-6.248;2023-02-13T05:54:07;102248.75;;;5.99;89.49
43707;BME280;61348;53.392;-6.248;2023-02-13T05:56:34;102238.88;;;5.98;89.32
43707;BME280;61348;53.392;-6.248;2023-02-13T05:59:01;102243.56;;;5.97;89.17
43707;BME280;61348;53.392;-6.248;2023-02-13T06:01:28;102241.63;;;5.98;89.42
43707;BME280;61348;53.392;-6.248;2023-02-13T06:03:55;102246.00;;;5.99;89.25
43707;BME280;61348;53.392;-6.248;2023-02-13T06:06:24;102243.25;;;5.99;89.26
43707;BME280;61348;53.392;-6.248;2023-02-13T06:08:51;102244.38;;;5.98;89.21
43707;BME280;61348;53.392;-6.248;2023-02-13T06:11:18;102237.22;;;5.97;88.91
43707;BME280;61348;53.392;-6.248;2023-02-13T06:13:45;102236.41;;;5.96;89.25
43707;BME280;61348;53.392;-6.248;2023-02-13T06:16:12;102239.44;;;5.95;89.16
43707;BME280;61348;53.392;-6.248;2023-02-13T06:18:39;102239.16;;;5.96;89.22
43707;BME280;61348;53.392;-6.248;2023-02-13T06:21:06;102231.72;;;5.97;89.30
43707;BME280;61348;53.392;-6.248;2023-02-13T06:23:33;102235.84;;;5.94;89.12
43707;BME280;61348;53.392;-6.248;2023-02-13T06:26:04;102236.16;;;5.93;89.19
43707;BME280;61348;53.392;-6.248;2023-02-13T06:28:32;102231.44;;;5.93;89.30
43707;BME280;61348;53.392;-6.248;2023-02-13T06:30:59;102233.66;;;5.91;89.17
43707;BME280;61348;53.392;-6.248;2023-02-13T06:33:26;102229.53;;;5.89;89.09
43707;BME280;61348;53.392;-6.248;2023-02-13T06:35:53;102227.34;;;5.91;89.15
43707;BME280;61348;53.392;-6.248;2023-02-13T06:38:20;102235.31;;;5.92;89.24
43707;BME280;61348;53.392;-6.248;2023-02-13T06:40:48;102236.16;;;5.93;89.00
43707;BME280;61348;53.392;-6.248;2023-02-13T06:43:16;102233.94;;;5.90;89.16
43707;BME280;61348;53.392;-6.248;2023-02-13T06:45:43;102225.69;;;5.90;89.11
43707;BME280;61348;53.392;-6.248;2023-02-13T06:48:16;102226.78;;;5.89;89.45
43707;BME280;61348;53.392;-6.248;2023-02-13T06:50:43;102229.53;;;5.89;89.14
43707;BME280;61348;53.392;-6.248;2023-02-13T06:53:10;102232.03;;;5.90;89.14
43707;BME280;61348;53.392;-6.248;2023-02-13T06:55:36;102228.16;;;5.91;89.17
43707;BME280;61348;53.392;-6.248;2023-02-13T06:58:05;102237.25;;;5.92;89.13
43707;BME280;61348;53.392;-6.248;2023-02-13T07:00:32;102237.25;;;5.92;89.19
43707;BME280;61348;53.392;-6.248;2023-02-13T07:03:03;102237.53;;;5.90;89.07
43707;BME280;61348;53.392;-6.248;2023-02-13T07:05:31;102234.50;;;5.92;89.17
43707;BME280;61348;53.392;-6.248;2023-02-13T07:07:58;102231.44;;;5.93;88.92
43707;BME280;61348;53.392;-6.248;2023-02-13T07:10:25;102224.03;;;5.94;88.98
43707;BME280;61348;53.392;-6.248;2023-02-13T07:12:52;102225.94;;;5.93;88.90
43707;BME280;61348;53.392;-6.248;2023-02-13T07:15:35;102227.91;;;5.93;88.79
43707;BME280;61348;53.392;-6.248;2023-02-13T07:18:03;102230.66;;;5.93;89.02
43707;BME280;61348;53.392;-6.248;2023-02-13T07:20:31;102223.50;;;5.92;88.69
43707;BME280;61348;53.392;-6.248;2023-02-13T07:23:00;102219.66;;;5.93;88.66
43707;BME280;61348;53.392;-6.248;2023-02-13T07:25:27;102231.44;;;5.93;88.80
43707;BME280;61348;53.392;-6.248;2023-02-13T07:27:54;102235.03;;;5.94;88.75
43707;BME280;61348;53.392;-6.248;2023-02-13T07:30:21;102237.78;;;5.94;88.54
43707;BME280;61348;53.392;-6.248;2023-02-13T07:32:47;102228.69;;;5.93;88.64
43707;BME280;61348;53.392;-6.248;2023-02-13T07:35:14;102222.66;;;5.91;88.55
43707;BME280;61348;53.392;-6.248;2023-02-13T07:37:41;102222.66;;;5.91;88.45
43707;BME280;61348;53.392;-6.248;2023-02-13T07:40:08;102223.50;;;5.92;88.27
43707;BME280;61348;53.392;-6.248;2023-02-13T07:42:35;102215.53;;;5.90;88.73
43707;BME280;61348;53.392;-6.248;2023-02-13T07:45:02;102223.22;;;5.88;88.56
43707;BME280;61348;53.392;-6.248;2023-02-13T07:47:32;102233.38;;;5.88;88.40
43707;BME280;61348;53.392;-6.248;2023-02-13T07:50:01;102236.13;;;5.88;88.56
43707;BME280;61348;53.392;-6.248;2023-02-13T07:52:28;102229.53;;;5.89;88.48
43707;BME280;61348;53.392;-6.248;2023-02-13T07:54:54;102234.22;;;5.88;88.39
43707;BME280;61348;53.392;-6.248;2023-02-13T07:57:21;102232.28;;;5.89;88.52
43707;BME280;61348;53.392;-6.248;2023-02-13T07:59:48;102228.44;;;5.90;88.41
43707;BME280;61348;53.392;-6.248;2023-02-13T08:02:15;102225.13;;;5.88;88.29
43707;BME280;61348;53.392;-6.248;2023-02-13T08:04:45;102233.13;;;5.89;88.54
43707;BME280;61348;53.392;-6.248;2023-02-13T08:07:13;102229.53;;;5.89;88.41
43707;BME280;61348;53.392;-6.248;2023-02-13T08:09:42;102240.53;;;5.89;88.39
43707;BME280;61348;53.392;-6.248;2023-02-13T08:12:27;102244.94;;;5.90;88.47
43707;BME280;61348;53.392;-6.248;2023-02-13T08:14:54;102244.94;;;5.90;88.67
43707;BME280;61348;53.392;-6.248;2023-02-13T08:17:21;102244.66;;;5.91;88.66
43707;BME280;61348;53.392;-6.248;2023-02-13T08:19:48;102245.47;;;5.92;88.66
43707;BME280;61348;53.392;-6.248;2023-02-13T08:22:15;102260.31;;;5.91;88.56
43707;BME280;61348;53.392;-6.248;2023-02-13T08:24:42;102255.66;;;5.91;88.83
43707;BME280;61348;53.392;-6.248;2023-02-13T08:27:12;102260.06;;;5.92;88.78
43707;BME280;61348;53.392;-6.248;2023-02-13T08:29:39;102259.75;;;5.94;88.70
43707;BME280;61348;53.392;-6.248;2023-02-13T08:32:07;102260.59;;;5.94;88.69
43707;BME280;61348;53.392;-6.248;2023-02-13T08:34:33;102244.94;;;5.95;88.88
43707;BME280;61348;53.392;-6.248;2023-02-13T08:37:01;102250.13;;;5.96;88.61
43707;BME280;61348;53.392;-6.248;2023-02-13T08:39:28;102249.06;;;5.97;88.89
43707;BME280;61348;53.392;-6.248;2023-02-13T08:41:55;102241.06;;;5.96;88.72
43707;BME280;61348;53.392;-6.248;2023-02-13T08:44:21;102243.56;;;5.97;88.99
43707;BME280;61348;53.392;-6.248;2023-02-13T08:46:48;102252.63;;;5.98;88.92
43707;BME280;61348;53.392;-6.248;2023-02-13T08:49:15;102247.13;;;5.98;88.86
43707;BME280;61348;53.392;-6.248;2023-02-13T08:51:42;102247.38;;;6.01;89.00
43707;BME280;61348;53.392;-6.248;2023-02-13T08:54:09;102254.25;;;6.04;88.99
43707;BME280;61348;53.392;-6.248;2023-02-13T08:56:36;102258.34;;;6.06;88.91
43707;BME280;61348;53.392;-6.248;2023-02-13T08:59:02;102261.38;;;6.15;88.97
43707;BME280;61348;53.392;-6.248;2023-02-13T09:01:30;102257.50;;;6.21;88.84
43707;BME280;61348;53.392;-6.248;2023-02-13T09:03:57;102263.00;;;6.26;88.70
43707;BME280;61348;53.392;-6.248;2023-02-13T09:06:24;102251.97;;;6.31;88.57
43707;BME280;61348;53.392;-6.248;2023-02-13T09:08:54;102254.19;;;6.34;89.04
43707;BME280;61348;53.392;-6.248;2023-02-13T09:11:21;102261.88;;;6.37;88.50
43707;BME280;61348;53.392;-6.248;2023-02-13T09:13:52;102250.88;;;6.37;88.44
43707;BME280;61348;53.392;-6.248;2023-02-13T09:16:19;102262.41;;;6.39;88.61
43707;BME280;61348;53.392;-6.248;2023-02-13T09:18:47;102256.91;;;6.39;88.34
43707;BME280;61348;53.392;-6.248;2023-02-13T09:21:14;102262.94;;;6.41;88.48
43707;BME280;61348;53.392;-6.248;2023-02-13T09:23:42;102260.16;;;6.46;88.42
43707;BME280;61348;53.392;-6.248;2023-02-13T09:26:13;102263.19;;;6.50;88.52
43707;BME280;61348;53.392;-6.248;2023-02-13T09:28:41;102250.53;;;6.54;88.43
43707;BME280;61348;53.392;-6.248;2023-02-13T09:31:11;102250.78;;;6.57;88.19
43707;BME280;61348;53.392;-6.248;2023-02-13T09:33:40;102246.63;;;6.60;88.11
43707;BME280;61348;53.392;-6.248;2023-02-13T09:36:10;102244.97;;;6.64;88.14
43707;BME280;61348;53.392;-6.248;2023-02-13T09:38:39;102252.94;;;6.65;88.04
43707;BME280;61348;53.392;-6.248;2023-02-13T09:41:17;102261.19;;;6.65;87.85
43707;BME280;61348;53.392;-6.248;2023-02-13T09:49:35;102242.22;;;6.64;87.65
43707;BME280;61348;53.392;-6.248;2023-02-13T09:52:02;102239.19;;;6.65;87.45
43707;BME280;61348;53.392;-6.248;2023-02-13T09:54:29;102243.59;;;6.66;87.66
43707;BME280;61348;53.392;-6.248;2023-02-13T09:57:05;102241.66;;;6.67;87.24
43707;BME280;61348;53.392;-6.248;2023-02-13T10:05:29;102250.13;;;6.75;87.04
43707;BME280;61348;53.392;-6.248;2023-02-13T10:08:05;102251.22;;;6.80;86.84
43707;BME280;61348;53.392;-6.248;2023-02-13T10:16:21;102251.19;;;6.85;86.45
43707;BME280;61348;53.392;-6.248;2023-02-13T10:21:57;102245.41;;;6.86;86.18
43707;BME280;61348;53.392;-6.248;2023-02-13T10:27:08;102244.00;;;6.89;86.14
43707;BME280;61348;53.392;-6.248;2023-02-13T10:29:49;102241.81;;;6.91;85.92
43707;BME280;61348;53.392;-6.248;2023-02-13T10:35:15;102243.97;;;6.99;85.78
43707;BME280;61348;53.392;-6.248;2023-02-13T10:37:45;102244.78;;;6.99;86.03
43707;BME280;61348;53.392;-6.248;2023-02-13T10:40:17;102244.19;;;7.02;85.69
43707;BME280;61348;53.392;-6.248;2023-02-13T10:42:52;102254.66;;;7.05;85.62
43707;BME280;61348;53.392;-6.248;2023-02-13T10:45:55;102251.03;;;7.10;85.73
43707;BME280;61348;53.392;-6.248;2023-02-13T10:59:01;102247.06;;;7.65;85.35
43707;BME280;61348;53.392;-6.248;2023-02-13T11:04:04;102257.63;;;7.81;85.22
43707;BME280;61348;53.392;-6.248;2023-02-13T11:06:34;102249.81;;;7.93;85.24
43707;BME280;61348;53.392;-6.248;2023-02-13T11:09:02;102246.31;;;8.12;85.34
43707;BME280;61348;53.392;-6.248;2023-02-13T11:14:12;102244.94;;;8.38;84.84
43707;BME280;61348;53.392;-6.248;2023-02-13T11:16:42;102259.19;;;8.45;84.80
43707;BME280;61348;53.392;-6.248;2023-02-13T11:19:39;102255.19;;;8.56;84.90
43707;BME280;61348;53.392;-6.248;2023-02-13T11:22:13;102239.34;;;8.67;85.09
43707;BME280;61348;53.392;-6.248;2023-02-13T11:24:42;102248.81;;;8.79;85.04
43707;BME280;61348;53.392;-6.248;2023-02-13T11:27:26;102238.75;;;8.88;84.64
43707;BME280;61348;53.392;-6.248;2023-02-13T11:29:56;102237.59;;;8.94;84.65
43707;BME280;61348;53.392;-6.248;2023-02-13T11:32:27;102241.91;;;9.00;84.42
43707;BME280;61348;53.392;-6.248;2023-02-13T11:34:54;102225.31;;;9.00;84.17
43707;BME280;61348;53.392;-6.248;2023-02-13T11:37:30;102239.59;;;9.07;84.20
43707;BME280;61348;53.392;-6.248;2023-02-13T11:39:59;102237.28;;;9.14;83.94
43707;BME280;61348;53.392;-6.248;2023-02-13T11:42:46;102232.19;;;9.22;83.86
43707;BME280;61348;53.392;-6.248;2023-02-13T11:45:21;102227.72;;;9.26;83.60
43707;BME280;61348;53.392;-6.248;2023-02-13T11:47:50;102215.00;;;9.25;82.89
43707;BME280;61348;53.392;-6.248;2023-02-13T11:50:33;102215.84;;;9.25;83.00
43707;BME280;61348;53.392;-6.248;2023-02-13T11:53:06;102213.97;;;9.21;82.80
43707;BME280;61348;53.392;-6.248;2023-02-13T11:56:01;102214.16;;;9.10;82.58
43707;BME280;61348;53.392;-6.248;2023-02-13T11:58:28;102214.28;;;9.00;82.32
43707;BME280;61348;53.392;-6.248;2023-02-13T12:04:05;102189.72;;;8.99;82.35
43707;BME280;61348;53.392;-6.248;2023-02-13T12:06:35;102188.06;;;8.98;82.08
43707;BME280;61348;53.392;-6.248;2023-02-13T12:09:11;102197.78;;;8.95;81.83
43707;BME280;61348;53.392;-6.248;2023-02-13T12:11:51;102189.28;;;8.92;81.85
43707;BME280;61348;53.392;-6.248;2023-02-13T12:14:24;102179.66;;;8.89;81.77
43707;BME280;61348;53.392;-6.248;2023-02-13T12:17:11;102174.13;;;8.89;81.78
43707;BME280;61348;53.392;-6.248;2023-02-13T12:19:54;102169.13;;;8.91;81.88
43707;BME280;61348;53.392;-6.248;2023-02-13T12:28:11;102156.25;;;9.00;81.18
43707;BME280;61348;53.392;-6.248;2023-02-13T12:36:41;102141.84;;;9.03;80.27
43707;BME280;61348;53.392;-6.248;2023-02-13T12:39:33;102151.47;;;9.06;80.12
43707;BME280;61348;53.392;-6.248;2023-02-13T12:47:31;102147.22;;;9.13;79.68
43707;BME280;61348;53.392;-6.248;2023-02-13T13:11:44;102137.50;;;9.62;79.66
43707;BME280;61348;53.392;-6.248;2023-02-13T13:14:36;102130.78;;;9.68;79.60
43707;BME280;61348;53.392;-6.248;2023-02-13T13:17:28;102133.34;;;9.78;79.74
43707;BME280;61348;53.392;-6.248;2023-02-13T13:25:18;102126.28;;;9.99;79.72
43707;BME280;61348;53.392;-6.248;2023-02-13T13:27:50;102110.91;;;10.07;79.83
43707;BME280;61348;53.392;-6.248;2023-02-13T13:30:31;102131.84;;;10.13;79.40
43707;BME280;61348;53.392;-6.248;2023-02-13T13:33:23;102117.06;;;10.17;78.70
43707;BME280;61348;53.392;-6.248;2023-02-13T13:46:56;102098.03;;;10.52;77.23
43707;BME280;61348;53.392;-6.248;2023-02-13T13:49:57;102094.53;;;10.60;76.90
43707;BME280;61348;53.392;-6.248;2023-02-13T13:52:33;102090.50;;;10.66;76.78
43707;BME280;61348;53.392;-6.248;2023-02-13T13:55:01;102083.72;;;10.72;76.52
43707;BME280;61348;53.392;-6.248;2023-02-13T14:05:22;102093.97;;;10.93;75.36
43707;BME280;61348;53.392;-6.248;2023-02-13T14:07:53;102079.19;;;10.98;75.21
43707;BME280;61348;53.392;-6.248;2023-02-13T14:12:50;102079.44;;;11.10;74.88
43707;BME280;61348;53.392;-6.248;2023-02-13T14:20:49;102063.34;;;11.21;74.32
43707;BME280;61348;53.392;-6.248;2023-02-13T14:23:36;102060.91;;;11.19;74.13
43707;BME280;61348;53.392;-6.248;2023-02-13T14:31:19;102047.25;;;11.31;73.24
43707;BME280;61348;53.392;-6.248;2023-02-13T14:36:48;102045.81;;;11.34;72.68
43707;BME280;61348;53.392;-6.248;2023-02-13T14:39:30;102048.28;;;11.35;72.40
43707;BME280;61348;53.392;-6.248;2023-02-13T14:42:00;102049.91;;;11.36;72.19
43707;BME280;61348;53.392;-6.248;2023-02-13T14:47:23;102048.81;;;11.46;71.73
43707;BME280;61348;53.392;-6.248;2023-02-13T14:49:54;102041.00;;;11.48;71.71
43707;BME280;61348;53.392;-6.248;2023-02-13T14:52:24;102048.19;;;11.49;71.42
43707;BME280;61348;53.392;-6.248;2023-02-13T14:54:57;102047.38;;;11.48;70.92
43707;BME280;61348;53.392;-6.248;2023-02-13T14:57:29;102030.88;;;11.52;70.90
43707;BME280;61348;53.392;-6.248;2023-02-13T15:00:05;102043.44;;;11.49;70.50
43707;BME280;61348;53.392;-6.248;2023-02-13T15:02:41;102037.88;;;11.49;70.46
43707;BME280;61348;53.392;-6.248;2023-02-13T15:05:15;102033.97;;;11.50;70.34
43707;BME280;61348;53.392;-6.248;2023-02-13T15:07:52;102035.25;;;11.44;70.49
43707;BME280;61348;53.392;-6.248;2023-02-13T15:10:30;102030.63;;;11.31;70.24
43707;BME280;61348;53.392;-6.248;2023-02-13T15:13:02;102018.94;;;11.12;70.04
43707;BME280;61348;53.392;-6.248;2023-02-13T15:15:34;102022.25;;;10.92;69.94
43707;BME280;61348;53.392;-6.248;2023-02-13T15:18:08;102026.34;;;10.72;70.28
43707;BME280;61348;53.392;-6.248;2023-02-13T15:20:39;102030.81;;;10.60;70.44
43707;BME280;61348;53.392;-6.248;2023-02-13T15:23:20;102013.97;;;10.48;70.56
43707;BME280;61348;53.392;-6.248;2023-02-13T15:25:47;102018.44;;;10.35;70.48
43707;BME280;61348;53.392;-6.248;2023-02-13T15:28:22;102008.41;;;10.25;70.29
43707;BME280;61348;53.392;-6.248;2023-02-13T15:30:55;102007.81;;;10.15;70.33
43707;BME280;61348;53.392;-6.248;2023-02-13T15:33:26;102006.06;;;10.05;70.37
43707;BME280;61348;53.392;-6.248;2023-02-13T15:35:55;102001.78;;;9.99;70.55
43707;BME280;61348;53.392;-6.248;2023-02-13T15:38:26;102012.97;;;9.94;70.44
43707;BME280;61348;53.392;-6.248;2023-02-13T15:40:57;102008.66;;;9.88;70.71
43707;BME280;61348;53.392;-6.248;2023-02-13T15:46:01;102010.81;;;9.77;70.83
43707;BME280;61348;53.392;-6.248;2023-02-13T15:48:31;102009.00;;;9.73;70.84
43707;BME280;61348;53.392;-6.248;2023-02-13T15:51:01;102014.63;;;9.68;70.91
43707;BME280;61348;53.392;-6.248;2023-02-13T15:53:28;102011.97;;;9.63;71.02
43707;BME280;61348;53.392;-6.248;2023-02-13T15:56:02;102014.84;;;9.58;71.22
43707;BME280;61348;53.392;-6.248;2023-02-13T15:58:31;102013.81;;;9.54;71.47
43707;BME280;61348;53.392;-6.248;2023-02-13T16:01:05;102023.84;;;9.50;71.49
43707;BME280;61348;53.392;-6.248;2023-02-13T16:03:34;102010.94;;;9.45;71.49